Time;durP1;ratioP1;P1;durP2;ratioP2;P2;SDS_P1;SDS_P2;PMS_P1;PMS_P2;Temp;Humidity;BMP_temperature;BMP_pressure;BME280_temperature;BME280_humidity;BME280_pressure;Samples;Min_cycle;Max_cycle;Signal;HPM_P1;HPM_P2
2023/07/16 00:01:02;;;;;;;5.05;4.38;;;;;;;-144.30;62.63;83955.47;5070460;28;20200;-51
2023/07/16 00:03:29;;;;;;;5.20;4.75;;;;;;;-144.30;62.66;83919.72;5070001;28;20204;-52
2023/07/16 00:05:56;;;;;;;5.00;4.63;;;;;;;-144.30;62.80;83965.41;5070258;28;20196;-53
2023/07/16 00:08:23;;;;;;;4.90;4.57;;;;;;;-144.30;63.07;83961.44;5069844;28;20206;-52
2023/07/16 00:10:51;;;;;;;7.85;4.90;;;;;;;-144.30;62.94;83983.28;5070035;28;20192;-50
2023/07/16 00:13:18;;;;;;;5.53;4.72;;;;;;;-144.30;63.18;83979.31;5070019;28;20219;-49
2023/07/16 00:15:45;;;;;;;5.00;4.60;;;;;;;-144.30;63.09;83987.28;5069999;28;20192;-50
2023/07/16 00:18:12;;;;;;;4.85;4.55;;;;;;;-144.30;63.10;83973.38;5069844;28;20648;-49
2023/07/16 00:20:39;;;;;;;4.88;4.57;;;;;;;-144.30;63.36;83999.19;5069613;28;20684;-50
2023/07/16 00:23:05;;;;;;;7.00;4.80;;;;;;;-144.30;63.07;84003.16;5070208;28;20195;-52
2023/07/16 00:25:34;;;;;;;4.80;4.50;;;;;;;-144.30;63.13;83963.44;5069893;28;20196;-49
2023/07/16 00:28:03;;;;;;;4.55;4.20;;;;;;;-144.30;62.86;84005.16;5070077;28;20281;-50
2023/07/16 00:30:30;;;;;;;7.82;4.90;;;;;;;-144.30;62.87;83997.22;5069586;28;20200;-52
2023/07/16 00:32:57;;;;;;;6.57;4.43;;;;;;;-144.30;62.96;83989.25;5069581;28;20311;-50
2023/07/16 00:35:24;;;;;;;5.38;4.95;;;;;;;-144.30;63.09;84017.06;5069194;28;20222;-49
2023/07/16 00:37:51;;;;;;;5.07;4.57;;;;;;;-144.30;63.43;83979.31;5069455;28;21001;-49
2023/07/16 00:40:18;;;;;;;5.25;4.50;;;;;;;-144.30;63.48;84023.03;5069250;28;20246;-52
2023/07/16 00:42:45;;;;;;;4.75;4.43;;;;;;;-144.30;63.47;84025.03;5069475;28;20192;-52
2023/07/16 00:45:15;;;;;;;4.90;4.55;;;;;;;-144.30;63.46;83969.38;5069269;28;20192;-50
2023/07/16 00:47:43;;;;;;;4.82;4.43;;;;;;;-144.30;63.69;84017.06;5069336;28;20192;-49
2023/07/16 00:50:12;;;;;;;5.50;4.50;;;;;;;-144.30;63.93;84040.91;5068936;28;20580;-53
2023/07/16 00:52:39;;;;;;;4.78;4.35;;;;;;;-144.30;64.24;84029.00;5069592;28;20215;-51
2023/07/16 00:55:08;;;;;;;6.57;4.32;;;;;;;-144.30;64.50;83997.22;5069353;28;20210;-51
2023/07/16 00:57:35;;;;;;;5.97;4.45;;;;;;;-144.30;64.50;84029.00;5066618;28;20200;-51
2023/07/16 01:00:03;;;;;;;5.80;4.40;;;;;;;-144.30;64.55;84029.00;5069136;28;20196;-51
2023/07/16 01:02:31;;;;;;;7.45;4.55;;;;;;;-144.30;64.50;84044.91;5068711;28;20196;-52
2023/07/16 01:04:59;;;;;;;6.82;4.80;;;;;;;-144.30;64.60;84027.00;5068878;28;20200;-49
2023/07/16 01:07:28;;;;;;;5.00;4.70;;;;;;;-144.30;64.96;84050.84;5068684;28;20206;-51
2023/07/16 01:09:55;;;;;;;5.00;4.60;;;;;;;-144.30;64.96;84052.84;5066292;28;20279;-52
2023/07/16 01:12:23;;;;;;;5.47;4.88;;;;;;;-144.30;65.25;84056.81;5068685;28;20200;-52
2023/07/16 01:14:52;;;;;;;13.93;4.43;;;;;;;-144.30;64.67;84023.03;5068867;28;20222;-49
2023/07/16 01:17:19;;;;;;;5.93;4.93;;;;;;;-144.30;64.89;84060.78;5068616;28;20192;-52
2023/07/16 01:19:48;;;;;;;5.35;4.90;;;;;;;-144.30;65.06;84070.72;5069038;28;20586;-51
2023/07/16 01:22:32;;;;;;;5.53;4.85;;;;;;;-144.30;64.86;83931.63;5068801;28;20670;-52
2023/07/16 01:25:35;;;;;;;7.32;4.70;;;;;;;-144.30;64.74;84029.00;5066715;28;20592;-49
2023/07/16 01:28:35;;;;;;;5.60;4.57;;;;;;;-144.30;64.14;84034.97;5065299;28;20210;-50
2023/07/16 01:31:04;;;;;;;7.45;4.50;;;;;;;-144.30;64.41;84021.06;5066213;28;20215;-52
2023/07/16 01:33:34;;;;;;;5.97;5.10;;;;;;;-144.30;64.14;84062.78;5068340;28;20208;-52
2023/07/16 01:36:01;;;;;;;5.25;4.82;;;;;;;-144.30;64.71;84040.91;5068364;28;20227;-48
2023/07/16 01:38:29;;;;;;;5.40;4.65;;;;;;;-144.30;63.80;84021.06;5068370;28;20223;-48
2023/07/16 01:40:56;;;;;;;5.63;5.15;;;;;;;-144.30;63.80;84040.91;5066016;28;20202;-49
2023/07/16 01:43:23;;;;;;;5.50;4.90;;;;;;;-144.30;63.87;84044.91;5068550;28;20583;-51
2023/07/16 01:45:50;;;;;;;5.20;4.32;;;;;;;-144.30;64.19;84058.81;5068449;28;20199;-52
2023/07/16 01:48:32;;;;;;;5.35;4.95;;;;;;;-144.30;64.38;84066.75;5068379;28;20572;-50
2023/07/16 01:50:58;;;;;;;5.22;4.70;;;;;;;-144.30;64.48;84056.81;5066615;28;20666;-52
2023/07/16 01:53:25;;;;;;;5.35;5.05;;;;;;;-144.30;64.72;84058.81;5068419;28;20233;-48
2023/07/16 01:55:52;;;;;;;5.10;4.60;;;;;;;-144.30;64.58;84036.94;5068378;28;20279;-50
2023/07/16 01:58:19;;;;;;;5.13;4.72;;;;;;;-144.30;64.55;84104.50;5068090;28;20196;-48
2023/07/16 02:00:48;;;;;;;7.35;4.25;;;;;;;-144.30;64.40;84025.03;5068353;28;20184;-50
2023/07/16 02:03:15;;;;;;;6.63;5.15;;;;;;;-144.30;64.47;84048.88;5065409;28;20199;-49
2023/07/16 02:05:43;;;;;;;6.40;4.85;;;;;;;-144.30;64.62;84086.63;5068432;28;20206;-51
2023/07/16 02:08:10;;;;;;;4.97;4.60;;;;;;;-144.30;64.19;84082.66;5068383;28;20698;-51
2023/07/16 02:10:37;;;;;;;4.88;4.40;;;;;;;-144.30;63.95;84046.88;5068589;28;20188;-50
2023/07/16 02:13:04;;;;;;;5.03;4.35;;;;;;;-144.30;64.25;84066.75;5068354;28;20196;-51
2023/07/16 02:15:30;;;;;;;4.72;4.47;;;;;;;-144.30;64.51;84096.56;5068086;28;20656;-48
2023/07/16 02:17:58;;;;;;;4.95;4.55;;;;;;;-144.30;64.74;84066.75;5068142;28;20204;-52
2023/07/16 02:20:25;;;;;;;5.82;4.82;;;;;;;-144.30;64.76;84110.47;5068003;28;20249;-52
2023/07/16 02:22:53;;;;;;;4.97;4.55;;;;;;;-144.30;64.80;84084.66;5068168;28;20192;-49
2023/07/16 02:25:20;;;;;;;5.53;4.82;;;;;;;-144.30;64.33;84074.72;5067907;28;20192;-48
2023/07/16 02:27:47;;;;;;;5.25;4.90;;;;;;;-144.30;64.43;84104.50;5068159;28;20188;-51
2023/07/16 02:30:14;;;;;;;4.95;4.65;;;;;;;-144.30;64.62;84042.91;5067613;28;20208;-51
2023/07/16 02:32:42;;;;;;;5.00;4.70;;;;;;;-144.30;64.72;84096.56;5068092;28;20200;-52
2023/07/16 02:35:09;;;;;;;5.15;4.75;;;;;;;-144.30;64.79;84104.50;5067857;28;20216;-48
2023/07/16 02:37:36;;;;;;;10.13;4.68;;;;;;;-144.30;65.44;84098.56;5065589;28;20761;-49
2023/07/16 02:40:07;;;;;;;5.50;5.03;;;;;;;-144.30;65.71;84048.88;5068014;28;20211;-49
2023/07/16 02:42:34;;;;;;;5.55;5.10;;;;;;;-144.30;65.90;84128.34;5069614;28;20196;-52
2023/07/16 02:45:00;;;;;;;5.05;4.60;;;;;;;-144.30;66.24;84142.28;5072101;28;20192;-52
2023/07/16 02:47:27;;;;;;;5.97;5.40;;;;;;;-144.30;66.05;84100.53;5072120;28;20689;-48
2023/07/16 02:49:54;;;;;;;5.35;4.95;;;;;;;-144.30;66.04;84122.41;5072241;28;20691;-48
2023/07/16 02:52:21;;;;;;;7.15;4.82;;;;;;;-144.30;65.76;84104.50;5071944;28;20286;-52
2023/07/16 02:54:48;;;;;;;6.07;5.53;;;;;;;-144.30;65.63;84110.47;5072045;28;20220;-52
2023/07/16 02:57:16;;;;;;;11.85;5.25;;;;;;;-144.30;65.62;84100.53;5071830;28;20196;-49
2023/07/16 02:59:43;;;;;;;6.10;5.47;;;;;;;-144.30;65.59;84142.28;5072266;28;20200;-49
2023/07/16 03:02:10;;;;;;;7.15;5.00;;;;;;;-144.30;65.98;84136.31;5071897;28;20286;-49
2023/07/16 03:04:37;;;;;;;5.32;5.03;;;;;;;-144.30;66.44;84164.13;5071848;28;20192;-48
2023/07/16 03:07:05;;;;;;;7.25;4.95;;;;;;;-144.30;66.95;84144.25;5071841;28;20291;-48
2023/07/16 03:09:32;;;;;;;6.50;5.05;;;;;;;-144.30;67.14;84172.06;5071503;28;20215;-48
2023/07/16 03:11:59;;;;;;;8.40;5.47;;;;;;;-144.30;67.36;84156.19;5071621;28;20192;-49
2023/07/16 03:14:27;;;;;;;5.63;5.22;;;;;;;-144.30;67.12;84164.13;5071639;28;20223;-51
2023/07/16 03:16:54;;;;;;;7.05;5.43;;;;;;;-144.30;67.16;84172.06;5071857;28;20206;-50
2023/07/16 03:19:21;;;;;;;8.07;5.18;;;;;;;-144.30;66.73;84142.28;5071578;28;20223;-49
2023/07/16 03:21:49;;;;;;;5.20;4.80;;;;;;;-144.30;66.37;84130.34;5071575;28;20200;-49
2023/07/16 03:24:16;;;;;;;5.60;5.10;;;;;;;-144.30;66.27;84100.53;5071297;28;20196;-50
2023/07/16 03:26:43;;;;;;;5.65;5.15;;;;;;;-144.30;66.00;84122.41;5071447;28;20202;-50
2023/07/16 03:29:10;;;;;;;6.22;5.63;;;;;;;-144.30;65.83;84134.31;5071459;28;20223;-52
2023/07/16 03:31:38;;;;;;;6.45;5.95;;;;;;;-144.30;65.85;84116.44;5071267;28;20214;-53
2023/07/16 03:34:05;;;;;;;7.57;5.88;;;;;;;-144.30;65.28;84128.34;5071079;28;20219;-49
2023/07/16 03:36:32;;;;;;;5.60;5.30;;;;;;;-144.30;65.35;84094.56;5070666;28;20231;-50
2023/07/16 03:38:59;;;;;;;8.20;5.80;;;;;;;-144.30;65.48;84088.63;5070929;28;20564;-52
2023/07/16 03:41:26;;;;;;;6.07;5.63;;;;;;;-144.30;65.71;84080.66;5071111;28;20196;-52
2023/07/16 03:43:53;;;;;;;5.78;5.38;;;;;;;-144.30;65.85;84124.38;5070982;28;20191;-53
2023/07/16 03:46:19;;;;;;;6.22;5.72;;;;;;;-144.30;65.59;84128.34;5070917;28;20623;-53
2023/07/16 03:48:48;;;;;;;6.05;5.65;;;;;;;-144.30;65.09;84082.66;5071247;28;20694;-53
2023/07/16 03:51:15;;;;;;;6.47;5.80;;;;;;;-144.30;64.36;84102.53;5070888;28;20200;-53
2023/07/16 03:53:42;;;;;;;5.45;5.15;;;;;;;-144.30;63.38;84025.03;5070255;28;20192;-50
2023/07/16 03:56:09;;;;;;;5.70;5.28;;;;;;;-144.30;62.46;83989.25;5071148;28;20200;-49
2023/07/16 03:58:36;;;;;;;6.40;5.78;;;;;;;-144.30;60.88;83901.81;5070953;28;20203;-53
2023/07/16 04:01:03;;;;;;;7.18;5.85;;;;;;;-144.30;58.01;83738.88;5070994;28;20200;-50
2023/07/16 04:03:30;;;;;;;5.68;5.38;;;;;;;-144.30;54.82;83595.81;5070610;28;20200;-49
2023/07/16 04:06:04;;;;;;;5.57;5.22;;;;;;;-144.30;51.23;83422.97;5070471;28;20279;-53
2023/07/16 04:08:31;;;;;;;6.45;5.43;;;;;;;-144.30;48.97;83262.03;5070482;28;20298;-53
2023/07/16 04:10:57;;;;;;;6.28;5.75;;;;;;;-144.30;46.89;83099.13;5070534;28;20210;-52
2023/07/16 04:13:24;;;;;;;5.32;4.93;;;;;;;-144.30;45.12;82964.06;5070522;28;20646;-52
2023/07/16 04:15:53;;;;;;;6.90;5.30;;;;;;;-144.30;43.50;82817.06;5070433;28;20226;-52
2023/07/16 04:18:19;;;;;;;5.50;4.97;;;;;;;-144.30;41.59;82666.09;5070391;28;20211;-49
2023/07/16 04:20:46;;;;;;;5.10;4.80;;;;;;;-144.30;40.21;82469.44;5070293;28;20646;-51
2023/07/16 04:23:15;;;;;;;5.40;4.93;;;;;;;-144.30;39.77;82515.13;5070246;28;20196;-53
2023/07/16 04:25:42;;;;;;;7.45;5.10;;;;;;;-144.30;39.40;82417.78;5070166;28;20200;-49
2023/07/16 04:28:09;;;;;;;5.25;4.72;;;;;;;-144.30;38.21;82252.94;5070233;28;20206;-52
2023/07/16 04:30:37;;;;;;;6.07;5.63;;;;;;;-144.30;37.11;82098.03;5069929;28;20745;-51
2023/07/16 04:33:04;;;;;;;5.70;5.28;;;;;;;-144.30;37.25;82145.69;5070272;28;20288;-52
2023/07/16 04:35:31;;;;;;;5.45;5.05;;;;;;;-144.30;37.02;82129.81;5069789;28;20236;-52
2023/07/16 04:37:57;;;;;;;6.30;5.15;;;;;;;-144.30;36.92;82129.81;5070464;28;20210;-53
2023/07/16 04:40:26;;;;;;;5.65;5.20;;;;;;;-144.30;36.53;82125.84;5070031;28;20196;-50
2023/07/16 04:42:53;;;;;;;6.03;5.30;;;;;;;-144.30;36.19;82026.53;5070038;28;20204;-49
2023/07/16 04:45:20;;;;;;;9.88;5.53;;;;;;;-144.30;35.51;81851.78;5070058;28;20196;-52
2023/07/16 04:47:47;;;;;;;5.80;5.40;;;;;;;-144.30;34.69;81724.69;5069956;28;20199;-52
2023/07/16 04:50:13;;;;;;;6.28;5.22;;;;;;;-144.30;34.12;81651.19;5069836;28;20206;-49
2023/07/16 04:52:40;;;;;;;4.95;4.50;;;;;;;-144.30;33.79;81597.59;5069791;28;20214;-49
2023/07/16 04:55:08;;;;;;;4.57;4.38;;;;;;;-144.30;34.65;81949.09;5069839;28;20700;-50
2023/07/16 04:57:37;;;;;;;5.05;4.70;;;;;;;-144.30;36.77;82326.44;5069789;28;20582;-52
2023/07/16 05:00:05;;;;;;;5.15;4.75;;;;;;;-144.30;37.31;82437.66;5069481;28;20283;-52
2023/07/16 05:02:32;;;;;;;5.28;4.88;;;;;;;-144.30;36.73;82239.03;5069343;28;20291;-52
2023/07/16 05:04:59;;;;;;;5.45;4.68;;;;;;;-144.30;36.17;82062.28;5069678;28;20646;-50
2023/07/16 05:07:26;;;;;;;5.50;4.85;;;;;;;-144.30;35.10;81907.38;5068825;28;20234;-53
2023/07/16 05:09:53;;;;;;;5.45;4.50;;;;;;;-144.30;34.50;81692.91;5069428;28;20282;-53
2023/07/16 05:12:20;;;;;;;4.68;4.32;;;;;;;-144.30;33.32;81543.97;5069445;28;20210;-53
2023/07/16 05:14:49;;;;;;;5.03;4.72;;;;;;;-144.30;33.40;81530.06;5069241;28;20219;-50
2023/07/16 05:17:16;;;;;;;4.65;4.38;;;;;;;-144.30;33.15;81474.47;5068664;28;20191;-50
2023/07/16 05:19:43;;;;;;;6.40;5.45;;;;;;;-144.30;33.38;81593.63;5068317;28;20195;-52
2023/07/16 05:22:10;;;;;;;4.97;4.70;;;;;;;-144.30;34.25;81873.63;5068921;28;20198;-48
2023/07/16 05:24:37;;;;;;;5.40;4.50;;;;;;;-144.30;34.81;81933.19;5068843;28;20196;-48
2023/07/16 05:27:05;;;;;;;5.07;4.68;;;;;;;-144.30;34.83;81955.03;5069118;28;20200;-48
2023/07/16 05:29:32;;;;;;;10.82;4.85;;;;;;;-144.30;34.78;81911.34;5068838;28;20217;-48
2023/07/16 05:32:00;;;;;;;8.93;5.18;;;;;;;-144.30;34.22;81744.53;5069106;28;20199;-53
2023/07/16 05:34:27;;;;;;;5.20;4.82;;;;;;;-144.30;34.20;81756.44;5068560;28;20196;-53
2023/07/16 05:36:55;;;;;;;5.13;4.82;;;;;;;-144.30;34.62;81849.78;5068315;28;20238;-52
2023/07/16 05:39:22;;;;;;;6.10;5.50;;;;;;;-144.30;34.27;81738.56;5067183;28;20191;-50
2023/07/16 05:41:49;;;;;;;5.55;4.88;;;;;;;-144.30;33.66;81667.09;5068925;28;20210;-50
2023/07/16 05:44:16;;;;;;;5.53;4.97;;;;;;;-144.30;34.11;81802.13;5068784;28;20198;-49
2023/07/16 05:46:43;;;;;;;6.03;5.63;;;;;;;-144.30;34.09;81786.25;5068306;28;20192;-52
2023/07/16 05:49:11;;;;;;;5.32;4.93;;;;;;;-144.30;33.36;81684.97;5068841;28;20697;-52
2023/07/16 05:51:38;;;;;;;5.70;5.13;;;;;;;-144.30;33.60;81784.25;5067732;28;20656;-50
2023/07/16 05:54:05;;;;;;;5.15;4.82;;;;;;;-144.30;34.39;81835.88;5069527;28;20200;-52
2023/07/16 05:56:33;;;;;;;5.85;4.90;;;;;;;-144.30;34.01;81808.09;5068558;28;20615;-52
2023/07/16 05:59:00;;;;;;;5.75;5.35;;;;;;;-144.30;33.67;81696.88;5069175;28;20231;-52
2023/07/16 06:01:27;;;;;;;5.38;4.90;;;;;;;-144.30;32.61;81541.97;5068517;28;20230;-53
2023/07/16 06:03:54;;;;;;;7.65;5.30;;;;;;;-144.30;32.58;81633.31;5069166;28;20691;-50
2023/07/16 06:06:23;;;;;;;5.20;4.90;;;;;;;-144.30;33.14;81732.63;5069114;28;20519;-49
2023/07/16 06:08:49;;;;;;;5.25;4.90;;;;;;;-144.30;33.48;81655.19;5068794;28;20192;-52
2023/07/16 06:11:16;;;;;;;4.85;4.55;;;;;;;-144.30;32.54;81460.56;5068439;28;20702;-52
2023/07/16 06:13:43;;;;;;;6.03;5.45;;;;;;;-144.30;32.16;81401.00;5068711;28;20218;-52
2023/07/16 06:16:10;;;;;;;9.13;5.18;;;;;;;-144.30;32.04;81269.94;5068840;28;20613;-52
2023/07/16 06:18:37;;;;;;;6.57;4.70;;;;;;;-144.30;31.37;81200.47;5071839;28;20198;-53
2023/07/16 06:21:04;;;;;;;5.25;4.90;;;;;;;-144.30;31.40;81148.84;5072726;28;20195;-53
2023/07/16 06:23:32;;;;;;;7.60;5.22;;;;;;;-144.30;31.27;81238.19;5071719;28;20201;-53
2023/07/16 06:25:59;;;;;;;6.72;5.53;;;;;;;-144.30;31.76;81295.75;5072278;28;20296;-49
2023/07/16 06:28:26;;;;;;;11.15;5.47;;;;;;;-144.30;32.09;81466.53;5072543;28;20199;-49
2023/07/16 06:30:53;;;;;;;6.30;5.40;;;;;;;-144.30;32.25;81412.91;5072586;28;20231;-52
2023/07/16 06:33:20;;;;;;;5.47;5.07;;;;;;;-144.30;31.98;81401.00;5072810;28;20268;-53
2023/07/16 06:35:47;;;;;;;7.93;5.43;;;;;;;-144.30;32.12;81426.81;5072296;28;20703;-52
2023/07/16 06:38:15;;;;;;;5.85;5.45;;;;;;;-144.30;31.66;81395.03;5072761;28;20195;-49
2023/07/16 06:40:49;;;;;;;10.50;5.20;;;;;;;-144.30;31.57;81323.56;5071735;28;20198;-49
2023/07/16 06:43:16;;;;;;;6.47;5.50;;;;;;;-144.30;32.06;81446.66;5070790;28;20207;-52
2023/07/16 06:45:43;;;;;;;5.82;5.25;;;;;;;-144.30;31.92;81422.84;5070798;28;20202;-50
2023/07/16 06:48:10;;;;;;;7.63;5.10;;;;;;;-144.30;31.64;81371.22;5072096;28;20211;-52
2023/07/16 06:50:37;;;;;;;7.40;5.07;;;;;;;-144.30;31.67;81418.88;5071778;28;20286;-50
2023/07/16 06:53:04;;;;;;;5.35;5.03;;;;;;;-144.30;31.65;81454.63;5072056;28;20519;-49
2023/07/16 06:55:31;;;;;;;5.10;4.70;;;;;;;-144.30;31.23;81426.81;5071962;28;20760;-50
2023/07/16 06:57:59;;;;;;;6.70;5.30;;;;;;;-144.30;31.86;81522.13;5072155;28;20352;-53
2023/07/16 07:00:26;;;;;;;5.28;4.78;;;;;;;-144.30;31.98;81528.09;5071711;28;20195;-50
2023/07/16 07:02:54;;;;;;;5.00;4.60;;;;;;;-144.30;31.59;81468.50;5071912;28;20196;-50
2023/07/16 07:05:21;;;;;;;6.65;4.72;;;;;;;-144.30;31.64;81478.44;5071521;28;20257;-50
2023/07/16 07:07:47;;;;;;;6.60;5.18;;;;;;;-144.30;31.95;81581.69;5072008;28;20563;-53
2023/07/16 07:10:14;;;;;;;8.50;4.68;;;;;;;-144.30;31.59;81482.41;5071785;28;20199;-53
2023/07/16 07:12:41;;;;;;;5.78;4.50;;;;;;;-144.30;31.77;81478.44;5071704;28;20217;-53
2023/07/16 07:15:10;;;;;;;5.65;5.13;;;;;;;-144.30;31.50;81545.97;5071812;28;20695;-54
2023/07/16 07:17:37;;;;;;;6.90;4.60;;;;;;;-144.30;31.15;81508.22;5071319;28;20221;-51
2023/07/16 07:20:05;;;;;;;5.28;4.78;;;;;;;-144.30;31.53;81530.06;5072021;28;20195;-51
2023/07/16 07:22:32;;;;;;;6.15;4.75;;;;;;;-144.30;31.23;81621.41;5071318;28;20198;-54
2023/07/16 07:24:59;;;;;;;4.55;4.25;;;;;;;-144.30;31.09;81532.06;5071602;28;20191;-53
2023/07/16 07:27:26;;;;;;;4.88;4.47;;;;;;;-144.30;31.73;81679.00;5071331;28;20206;-53
2023/07/16 07:29:55;;;;;;;5.18;4.72;;;;;;;-144.30;31.47;81601.56;5070272;28;20196;-50
2023/07/16 07:32:23;;;;;;;5.72;4.45;;;;;;;-144.30;31.55;81549.94;5070947;28;20226;-51
2023/07/16 07:34:51;;;;;;;5.20;4.53;;;;;;;-144.30;31.57;81708.78;5071259;28;20202;-53
2023/07/16 07:37:18;;;;;;;4.55;4.28;;;;;;;-144.30;31.37;81613.47;5071380;28;20319;-51
2023/07/16 07:39:47;;;;;;;5.10;4.65;;;;;;;-144.30;30.74;81395.03;5071852;28;20270;-51
2023/07/16 07:42:14;;;;;;;6.18;4.53;;;;;;;-144.30;30.57;81426.81;5071852;28;20191;-51
2023/07/16 07:44:41;;;;;;;5.18;4.72;;;;;;;-144.30;30.86;81399.00;5071139;28;20690;-53
2023/07/16 07:47:09;;;;;;;8.68;4.90;;;;;;;-144.30;30.38;81281.88;5070834;28;20191;-53
2023/07/16 07:49:37;;;;;;;4.68;4.28;;;;;;;-144.30;30.47;81442.69;5071727;28;20191;-53
2023/07/16 07:52:05;;;;;;;6.90;4.80;;;;;;;-144.30;30.96;81506.25;5071857;28;20191;-50
2023/07/16 07:54:32;;;;;;;4.38;3.97;;;;;;;-144.30;30.55;81434.75;5071481;28;20195;-51
2023/07/16 07:57:03;;;;;;;5.72;4.05;;;;;;;-144.30;30.55;81403.00;5071655;28;20702;-51
2023/07/16 07:59:30;;;;;;;4.43;4.03;;;;;;;-144.30;30.38;81335.47;5071326;28;20207;-53
2023/07/16 08:01:57;;;;;;;5.28;4.75;;;;;;;-144.30;30.06;81357.31;5071462;28;20289;-53
2023/07/16 08:04:24;;;;;;;4.85;4.45;;;;;;;-144.30;29.72;81178.63;5071356;28;20572;-50
2023/07/16 08:06:54;;;;;;;4.95;4.40;;;;;;;-144.30;29.84;81125.00;5071429;28;20756;-53
2023/07/16 08:09:21;;;;;;;6.80;4.18;;;;;;;-144.30;29.17;81051.53;5070997;28;20196;-51
2023/07/16 08:11:48;;;;;;;4.97;4.45;;;;;;;-144.30;29.14;80914.56;5071227;28;20199;-51
2023/07/16 08:14:15;;;;;;;5.60;4.18;;;;;;;-144.30;28.90;80837.13;5070747;28;20192;-51
2023/07/16 08:16:42;;;;;;;5.93;4.40;;;;;;;-144.30;28.99;80876.84;5070266;28;20234;-51
2023/07/16 08:19:09;;;;;;;4.80;4.40;;;;;;;-144.30;29.33;80934.41;5070386;28;20686;-53
2023/07/16 08:21:37;;;;;;;6.38;4.75;;;;;;;-144.30;29.17;80968.16;5070642;28;20197;-53
2023/07/16 08:24:07;;;;;;;5.10;4.70;;;;;;;-144.30;29.24;80872.88;5070348;28;20597;-50
2023/07/16 08:26:34;;;;;;;7.03;4.60;;;;;;;-144.30;29.08;80773.59;5070803;28;20210;-50
2023/07/16 08:29:02;;;;;;;5.93;4.65;;;;;;;-144.30;29.00;80702.13;5071053;28;20206;-51
2023/07/16 08:31:29;;;;;;;4.85;4.47;;;;;;;-144.30;29.57;80878.81;5070685;28;20286;-53
2023/07/16 08:33:56;;;;;;;12.20;4.72;;;;;;;-144.30;29.15;80765.66;5070935;28;20683;-54
2023/07/16 08:36:23;;;;;;;7.28;4.45;;;;;;;-144.30;29.53;80862.94;5070305;28;20233;-53
2023/07/16 08:38:50;;;;;;;5.10;4.60;;;;;;;-144.30;29.67;81011.84;5070742;28;20199;-51
2023/07/16 08:41:18;;;;;;;4.95;4.50;;;;;;;-144.30;29.83;80993.97;5070381;28;20204;-54
2023/07/16 08:43:48;;;;;;;5.65;5.10;;;;;;;-144.30;29.87;81013.81;5070487;28;20195;-54
2023/07/16 08:46:16;;;;;;;7.63;5.22;;;;;;;-144.30;30.70;81291.78;5070562;28;20199;-51
2023/07/16 08:48:45;;;;;;;5.90;5.40;;;;;;;-144.30;30.89;81412.91;5069789;28;20199;-54
2023/07/16 08:51:16;;;;;;;5.07;4.35;;;;;;;-144.30;30.55;81281.88;5069762;28;20667;-50
2023/07/16 08:53:43;;;;;;;5.93;5.38;;;;;;;-144.30;31.09;81377.16;5070106;28;20200;-53
2023/07/16 08:56:10;;;;;;;4.95;4.65;;;;;;;-144.30;31.32;81377.16;5070301;28;20306;-54
2023/07/16 08:58:39;;;;;;;6.97;5.30;;;;;;;-144.30;31.77;81534.03;5070524;28;20589;-54
2023/07/16 09:01:07;;;;;;;5.47;5.07;;;;;;;-144.30;31.49;81510.22;5070680;28;20632;-53
2023/07/16 09:03:34;;;;;;;5.93;5.47;;;;;;;-144.30;31.82;81490.34;5070209;28;20581;-53
2023/07/16 09:06:01;;;;;;;8.30;5.60;;;;;;;-144.30;31.78;81458.59;5070186;28;20589;-53
2023/07/16 09:08:28;;;;;;;6.05;5.32;;;;;;;-144.30;31.71;81416.88;5069164;28;20202;-54
2023/07/16 09:10:56;;;;;;;9.18;5.70;;;;;;;-144.30;32.34;81480.44;5070348;28;20691;-51
2023/07/16 09:13:26;;;;;;;12.07;5.43;;;;;;;-144.30;32.28;81371.22;5069778;28;20191;-51
2023/07/16 09:15:56;;;;;;;9.00;5.70;;;;;;;-144.30;32.58;81569.78;5070065;28;20258;-51
2023/07/16 09:18:25;;;;;;;6.40;5.90;;;;;;;-144.30;33.24;81541.97;5069759;28;20195;-51
2023/07/16 09:20:56;;;;;;;6.18;5.55;;;;;;;-144.30;33.62;81714.75;5069772;28;20586;-50
2023/07/16 09:23:26;;;;;;;6.97;6.30;;;;;;;-144.30;33.47;81696.88;5068633;28;20191;-49
2023/07/16 09:25:54;;;;;;;6.15;5.47;;;;;;;-144.30;33.32;81538.00;5069336;28;20265;-50
2023/07/16 09:28:21;;;;;;;9.48;5.75;;;;;;;-144.30;33.16;81551.91;5069358;28;20656;-49
2023/07/16 09:30:48;;;;;;;8.30;6.63;;;;;;;-144.30;33.31;81526.09;5069319;28;20552;-52
2023/07/16 09:33:19;;;;;;;9.85;6.85;;;;;;;-144.30;33.59;81577.72;5069046;28;20200;-52
2023/07/16 09:35:49;;;;;;;8.05;6.03;;;;;;;-144.30;33.85;81623.41;5066655;28;20223;-50
2023/07/16 09:38:17;;;;;;;7.13;6.53;;;;;;;-144.30;33.97;81641.28;5069405;28;20734;-50
2023/07/16 09:40:44;;;;;;;6.85;6.38;;;;;;;-144.30;33.42;81522.13;5066229;28;20195;-50
2023/07/16 09:43:11;;;;;;;9.77;7.13;;;;;;;-144.30;33.33;81538.00;5069294;28;20200;-52
2023/07/16 09:45:38;;;;;;;7.00;6.53;;;;;;;-144.30;33.79;81549.94;5069631;28;20284;-51
2023/07/16 09:48:06;;;;;;;8.25;7.55;;;;;;;-144.30;33.52;81466.53;5069457;28;20286;-53
2023/07/16 09:50:35;;;;;;;8.68;7.07;;;;;;;-144.30;33.58;81504.25;5069504;28;20694;-53
2023/07/16 09:53:03;;;;;;;8.63;7.75;;;;;;;-144.30;33.60;81500.28;5068976;28;20685;-53
2023/07/16 09:55:34;;;;;;;7.72;7.03;;;;;;;-144.30;33.27;81482.41;5069426;28;20199;-50
2023/07/16 09:58:04;;;;;;;10.63;7.75;;;;;;;-144.30;33.41;81534.03;5069322;28;20245;-53
2023/07/16 10:00:36;;;;;;;8.73;7.25;;;;;;;-144.30;33.39;81506.25;5068961;28;20196;-53
2023/07/16 10:03:03;;;;;;;8.23;7.63;;;;;;;-144.30;33.74;81476.47;5068351;28;20195;-53
2023/07/16 10:05:30;;;;;;;10.38;9.18;;;;;;;-144.30;33.76;81490.34;5068807;28;20195;-53
2023/07/16 10:08:00;;;;;;;8.40;7.68;;;;;;;-144.30;33.69;81458.59;5068832;28;20586;-53
2023/07/16 10:10:28;;;;;;;8.68;7.82;;;;;;;-144.30;33.22;81375.19;5068566;28;20586;-52
2023/07/16 10:12:59;;;;;;;10.10;7.47;;;;;;;-144.30;33.39;81410.94;5068541;28;20197;-53
2023/07/16 10:15:28;;;;;;;8.75;7.78;;;;;;;-144.30;33.77;81462.56;5068423;28;20187;-53
2023/07/16 10:17:55;;;;;;;9.05;8.20;;;;;;;-144.30;34.20;81581.69;5068601;28;20215;-53
2023/07/16 10:20:33;;;;;;;9.07;8.20;;;;;;;-144.30;34.40;81623.41;5068711;28;20191;-53
2023/07/16 10:23:12;;;;;;;8.27;7.57;;;;;;;-144.30;34.91;81690.91;5063355;28;20195;-53
2023/07/16 10:25:40;;;;;;;11.30;7.70;;;;;;;-144.30;34.80;81677.00;5066113;28;20662;-52
2023/07/16 10:28:07;;;;;;;11.60;7.28;;;;;;;-144.30;34.98;81726.66;5067207;28;20222;-52
2023/07/16 10:30:34;;;;;;;7.80;7.20;;;;;;;-144.30;35.58;81790.22;5068383;28;20196;-53
2023/07/16 10:33:06;;;;;;;8.57;7.93;;;;;;;-144.30;35.40;81744.53;5065852;28;20507;-53
2023/07/16 10:35:37;;;;;;;8.68;7.82;;;;;;;-144.30;35.70;81871.63;5068205;28;20619;-53
2023/07/16 10:38:05;;;;;;;8.18;7.40;;;;;;;-144.30;36.21;81919.28;5065653;28;20695;-51
2023/07/16 10:40:34;;;;;;;9.52;7.45;;;;;;;-144.30;36.01;81887.53;5068518;28;20668;-50
2023/07/16 10:43:01;;;;;;;11.85;7.80;;;;;;;-144.30;36.47;81893.47;5067261;28;20211;-51
2023/07/16 10:45:29;;;;;;;8.65;7.72;;;;;;;-144.30;36.69;81949.09;5068779;28;20278;-51
2023/07/16 10:47:56;;;;;;;9.02;8.23;;;;;;;-144.30;36.79;81962.97;5068278;28;20582;-50
2023/07/16 10:50:23;;;;;;;8.93;8.25;;;;;;;-144.30;36.82;81986.81;5067809;28;20192;-50
2023/07/16 10:52:53;;;;;;;9.32;8.32;;;;;;;-144.30;36.75;81921.28;5068279;28;20227;-50
2023/07/16 10:55:21;;;;;;;9.45;8.63;;;;;;;-144.30;36.71;81966.94;5068312;28;20196;-53
2023/07/16 10:57:49;;;;;;;11.30;9.52;;;;;;;-144.30;37.57;82125.84;5068029;28;20218;-53
2023/07/16 11:00:17;;;;;;;9.85;8.82;;;;;;;-144.30;37.62;82086.13;5068353;28;20192;-53
2023/07/16 11:02:46;;;;;;;10.80;8.75;;;;;;;-144.30;37.59;82070.22;5068848;28;20204;-54
2023/07/16 11:05:14;;;;;;;10.07;9.18;;;;;;;-144.30;37.52;82090.09;5072447;28;20203;-53
2023/07/16 11:07:44;;;;;;;10.68;8.50;;;;;;;-144.30;37.91;82054.34;5072218;28;20227;-51
2023/07/16 11:10:11;;;;;;;10.05;8.57;;;;;;;-144.30;38.49;82181.44;5072515;28;20196;-51
2023/07/16 11:12:42;;;;;;;9.25;8.55;;;;;;;-144.30;38.59;82441.63;5072314;28;20200;-50
2023/07/16 11:15:10;;;;;;;12.00;8.38;;;;;;;-144.30;38.81;82205.28;5072451;28;20577;-52
2023/07/16 11:17:40;;;;;;;14.85;8.90;;;;;;;-144.30;38.91;82187.41;5071608;28;20215;-51
2023/07/16 11:20:10;;;;;;;8.93;8.00;;;;;;;-144.30;38.57;82159.59;5072007;28;20204;-50